Harmon, IL (61042)

12:07 AM CST on February 11, 2016 (GMT -0600)
KILHARMO2 | | Change Station
CLOSE
Current Station
Personal Weather Station
Location: Harmon, IL
Elevation: 664 ft
Nearby Weather Stations

Elev 664 ft 41.75 °N, 89.58 °W | Updated 4 minutes ago

Overcast
Overcast
12.5 °F
Feels Like 13 °F
N
2.0
Wind Variable Wind from North
Gusts 5.0 mph

Today
High -- | Low -- °F
--% Chance of Precip.
Yesterday
High -- | Low -- °F
Precip. -- in
Pressure 30.17 in
Visibility 10.0 miles
Clouds Overcast 11000 ft
Windchill 13 °F
Dew Point 5 °F
Humidity 72%
Rainfall 0.00 in
Snow Depth Not available.
6:59 AM 5:26 PM
Waxing Crescent, 9% visible
METAR KSQI 110555Z 35005KT 10SM OVC110 M10/M17 A3017 RMK AO1 11090 21110 410601140 52010
Pressure 30.17 in
Visibility 10.0 miles
Clouds Overcast 11000 ft
Windchill 13 °F
Dew Point 5 °F
Humidity 72%
Rainfall 0.00 in
Snow Depth Not available.
6:59 AM 5:26 PM
Waxing Crescent, 9% visible
METAR KSQI 110555Z 35005KT 10SM OVC110 M10/M17 A3017 RMK AO1 11090 21110 410601140 52010

10-Day Weather Forecast

Almanac

Astronomy

Feb. 11, 2016 Rise Set
Actual Time
Civil Twilight
Nautical Twilight
Astronomical Twilight
Moon
Length of Visible Light
Length of Day
Tomorrow will be .
, % of the Moon is Illuminated

Today's Extremes

State Highs State Lows

Community

WunderPhotos

Upload Photos

1,892,028 photos uploaded!

WunderBlog® & News

Nearby

Air Quality

  Air Quality AQ Index Pollutant
Not available.

Snow Depth

Station Depth Elevation

Earthquake Activity

City Distance Mag. Time & Date
Minimum magnitude displayed is 2.5.

Coastal Water Temperatures

Place Temperature

Stations

Nearby Weather Stations

Station Location Temp. Windchill Dew Point Humidity Wind Precip. Elev Updated Type
                   

Watches & Warnings

There are currently no watches in effect.